Time;durP1;ratioP1;P1;durP2;ratioP2;P2;SDS_P1;SDS_P2;PMS_P1;PMS_P2;Temp;Humidity;BMP_temperature;BMP_pressure;BME280_temperature;BME280_humidity;BME280_pressure;Samples;Min_cycle;Max_cycle;Signal;HPM_P1;HPM_P2
2021/09/05 00:02:16;;;;;;;;;27.00;27.00;;;;;24.97;60.46;101057.09;5060824;28;45453;-53
2021/09/05 00:04:42;;;;;;;;;27.75;26.00;;;;;24.95;60.75;101054.50;5078834;28;48223;-55
2021/09/05 00:07:07;;;;;;;;;28.00;26.75;;;;;24.93;60.82;101056.47;5039948;28;45526;-52
2021/09/05 00:09:33;;;;;;;;;28.75;28.25;;;;;24.92;60.71;101052.03;5076997;27;45425;-54
2021/09/05 00:11:59;;;;;;;;;31.00;29.50;;;;;24.88;61.57;101047.78;5079330;27;45534;-53
2021/09/05 00:14:25;;;;;;;;;34.25;31.25;;;;;24.86;60.79;101042.47;5044633;28;45440;-54
2021/09/05 00:16:51;;;;;;;;;31.00;28.25;;;;;24.85;60.63;101040.75;5081240;28;45171;-55
2021/09/05 00:19:17;;;;;;;;;33.25;30.75;;;;;24.85;60.85;101045.31;5079847;28;46417;-54
2021/09/05 00:21:43;;;;;;;;;34.50;32.50;;;;;24.82;61.16;101043.72;5079583;27;45400;-54
2021/09/05 00:24:09;;;;;;;;;35.75;32.00;;;;;24.77;61.45;101045.91;5078821;27;45468;-50
2021/09/05 00:26:35;;;;;;;;;35.50;31.50;;;;;24.75;61.31;101049.72;5048486;28;45425;-52
2021/09/05 00:29:00;;;;;;;;;33.25;30.50;;;;;24.72;61.07;101047.25;5079579;28;45491;-51
2021/09/05 00:31:26;;;;;;;;;32.75;31.75;;;;;24.68;61.18;101049.31;5069305;27;45669;-52
2021/09/05 00:33:52;;;;;;;;;31.25;30.25;;;;;24.67;61.14;101055.75;5083528;27;47893;-53
2021/09/05 00:36:18;;;;;;;;;28.50;28.50;;;;;24.66;61.29;101051.28;5081634;28;45583;-52
2021/09/05 00:38:44;;;;;;;;;29.25;29.00;;;;;24.65;61.70;101055.84;5060789;27;45421;-51
2021/09/05 00:41:09;;;;;;;;;35.00;30.25;;;;;24.65;61.44;101060.41;5079913;27;45464;-53
2021/09/05 00:43:52;;;;;;;;;31.25;30.25;;;;;24.62;61.04;101052.47;5080073;28;47466;-54
2021/09/05 00:46:17;;;;;;;;;30.50;28.00;;;;;24.59;61.38;101052.72;5077943;28;45374;-53
2021/09/05 00:48:43;;;;;;;;;29.25;29.25;;;;;24.57;61.57;101060.97;5077705;28;45516;-53
2021/09/05 00:51:08;;;;;;;;;32.00;30.50;;;;;24.54;61.96;101055.78;5059996;28;45750;-54
2021/09/05 00:53:34;;;;;;;;;28.50;27.00;;;;;24.52;61.54;101051.44;5077421;28;47163;-54
2021/09/05 00:55:59;;;;;;;;;31.00;28.75;;;;;24.51;61.81;101064.13;5086348;27;45338;-53
2021/09/05 00:58:25;;;;;;;;;32.25;31.25;;;;;24.50;61.70;101056.13;5060075;28;45387;-53
2021/09/05 01:00:50;;;;;;;;;30.00;28.75;;;;;24.49;61.49;101051.69;5078032;28;45268;-53
2021/09/05 01:03:16;;;;;;;;;31.75;30.00;;;;;24.47;62.02;101059.06;5077438;28;47117;-53
2021/09/05 01:05:41;;;;;;;;;32.00;30.25;;;;;24.44;61.98;101051.16;5078027;28;45773;-54
2021/09/05 01:08:07;;;;;;;;;32.75;28.50;;;;;24.40;61.74;101046.94;5059069;28;45308;-51
2021/09/05 01:10:33;;;;;;;;;28.50;28.25;;;;;24.37;61.94;101053.44;5078626;27;45479;-53
2021/09/05 01:12:59;;;;;;;;;26.50;25.25;;;;;24.36;62.08;101049.88;5058853;28;46637;-54
2021/09/05 01:15:24;;;;;;;;;28.75;28.00;;;;;24.35;61.99;101059.00;5077432;28;45613;-53
2021/09/05 01:17:50;;;;;;;;;29.50;29.00;;;;;24.35;62.24;101056.28;5039709;28;45323;-54
2021/09/05 01:20:15;;;;;;;;;31.75;29.25;;;;;24.32;62.40;101053.78;5072723;28;45421;-53
2021/09/05 01:22:41;;;;;;;;;27.00;27.00;;;;;24.30;62.21;101055.75;5058353;28;47031;-54
2021/09/05 01:25:07;;;;;;;;;30.25;29.50;;;;;24.30;62.25;101061.19;5077605;28;45477;-54
2021/09/05 01:27:32;;;;;;;;;28.00;28.00;;;;;24.29;62.55;101055.84;5056461;28;45429;-54
2021/09/05 01:29:57;;;;;;;;;32.25;31.00;;;;;24.24;62.28;101058.88;5074027;28;45381;-53
2021/09/05 01:32:23;;;;;;;;;27.25;25.25;;;;;24.21;62.55;101056.41;5071690;28;48030;-53
2021/09/05 01:34:49;;;;;;;;;29.50;28.50;;;;;24.17;62.63;101056.75;5076734;28;45734;-53
2021/09/05 01:37:14;;;;;;;;;25.50;24.50;;;;;24.16;63.11;101057.72;5074689;27;45823;-52
2021/09/05 01:39:40;;;;;;;;;29.75;26.75;;;;;24.17;62.87;101051.31;5073248;28;45765;-51
2021/09/05 01:42:06;;;;;;;;;30.25;29.25;;;;;24.17;62.94;101052.19;5075804;28;48244;-54
2021/09/05 01:44:31;;;;;;;;;25.00;25.00;;;;;24.16;62.30;101055.00;5077085;28;45699;-54
2021/09/05 01:46:56;;;;;;;;;27.00;27.00;;;;;24.15;62.23;101069.56;5076736;27;45330;-54
2021/09/05 01:49:22;;;;;;;;;26.50;25.50;;;;;24.14;62.31;101068.69;5077575;28;45187;-54
2021/09/05 01:51:47;;;;;;;;;29.75;26.50;;;;;24.11;62.64;101074.31;5077908;28;48121;-54
2021/09/05 01:54:13;;;;;;;;;27.00;26.00;;;;;24.08;62.73;101072.69;5080476;27;45188;-52
2021/09/05 01:56:38;;;;;;;;;28.00;26.00;;;;;24.07;62.33;101078.22;5079060;28;45465;-52
2021/09/05 01:59:05;;;;;;;;;25.75;25.75;;;;;24.04;62.44;101086.59;5080761;28;45478;-53
2021/09/05 02:01:32;;;;;;;;;24.50;24.50;;;;;24.03;62.54;101079.44;5080139;28;47190;-54
2021/09/05 02:03:58;;;;;;;;;21.50;21.50;;;;;24.02;62.75;101077.72;5080420;28;45994;-51
2021/09/05 02:06:24;;;;;;;;;23.75;23.75;;;;;24.01;62.42;101073.25;5076780;28;45628;-53
2021/09/05 02:08:49;;;;;;;;;23.25;23.25;;;;;24.00;62.64;101076.94;5062070;27;45939;-54
2021/09/05 02:11:15;;;;;;;;;23.50;22.75;;;;;23.97;62.51;101071.72;5080476;28;46217;-55
2021/09/05 02:13:41;;;;;;;;;26.25;24.75;;;;;23.92;62.72;101068.50;5080482;27;45910;-54
2021/09/05 02:16:06;;;;;;;;;23.00;22.50;;;;;23.92;62.70;101072.06;5080340;28;45334;-54
2021/09/05 02:18:32;;;;;;;;;22.75;22.75;;;;;23.89;62.56;101068.72;5080687;27;45727;-55
2021/09/05 02:20:58;;;;;;;;;24.00;23.00;;;;;23.88;62.51;101072.38;5079972;27;47950;-54
2021/09/05 02:23:23;;;;;;;;;23.25;23.25;;;;;23.87;62.63;101068.81;5080008;27;45398;-53
2021/09/05 02:25:49;;;;;;;;;21.75;19.75;;;;;23.86;62.38;101066.22;5080687;27;45417;-51
2021/09/05 02:28:14;;;;;;;;;21.00;20.00;;;;;23.86;62.58;101074.34;5080478;28;45400;-53
2021/09/05 02:30:40;;;;;;;;;22.25;20.75;;;;;23.85;62.47;101070.78;5080979;27;47215;-53
2021/09/05 02:33:05;;;;;;;;;20.50;20.50;;;;;23.85;62.60;101069.91;5080521;27;46119;-52
2021/09/05 02:35:32;;;;;;;;;21.50;20.50;;;;;23.82;62.34;101065.56;5062169;28;45546;-54
2021/09/05 02:37:57;;;;;;;;;24.00;24.00;;;;;23.81;62.38;101063.84;5061406;28;45434;-54
2021/09/05 02:40:23;;;;;;;;;18.00;18.00;;;;;23.80;62.42;101064.81;5061730;28;48911;-53
2021/09/05 02:42:48;;;;;;;;;22.75;22.50;;;;;23.80;62.23;101066.66;5061627;28;45444;-52
2021/09/05 02:45:14;;;;;;;;;18.75;18.25;;;;;23.78;62.17;101072.19;5080302;28;45412;-52
2021/09/05 02:47:39;;;;;;;;;13.50;13.50;;;;;23.76;62.29;101066.91;5061653;28;45730;-53
2021/09/05 02:50:06;;;;;;;;;21.50;19.00;;;;;23.73;62.33;101067.09;5069040;28;47757;-53
2021/09/05 02:52:31;;;;;;;;;17.75;16.25;;;;;23.74;62.31;101060.69;5079211;27;45646;-53
2021/09/05 02:54:57;;;;;;;;;17.50;13.75;;;;;23.73;62.01;101063.50;5079787;27;45387;-54
2021/09/05 02:57:22;;;;;;;;;18.75;18.25;;;;;23.71;62.14;101063.63;5079806;28;45681;-54
2021/09/05 02:59:48;;;;;;;;;18.00;16.00;;;;;23.71;62.18;101068.19;5079746;27;47259;-53
2021/09/05 03:02:13;;;;;;;;;18.00;18.00;;;;;23.69;61.87;101071.00;5085311;27;45947;-52
2021/09/05 03:04:39;;;;;;;;;21.00;20.00;;;;;23.66;62.20;101068.53;5060440;28;45248;-53
2021/09/05 03:07:04;;;;;;;;;21.50;21.50;;;;;23.65;62.26;101069.50;5079069;27;45743;-54
2021/09/05 03:09:30;;;;;;;;;27.75;26.25;;;;;23.65;62.12;101065.91;5044088;28;46491;-54
2021/09/05 03:11:55;;;;;;;;;38.00;34.00;;;;;23.64;62.02;101064.19;5079361;27;45450;-53
2021/09/05 03:14:21;;;;;;;;;44.50;37.00;;;;;23.64;61.84;101069.59;5079102;27;45399;-53
2021/09/05 03:16:46;;;;;;;;;48.50;40.00;;;;;23.63;62.00;101071.44;5061213;28;45712;-52
2021/09/05 03:19:12;;;;;;;;;48.25;41.00;;;;;23.65;62.12;101068.63;5079181;28;47998;-51
2021/09/05 03:21:39;;;;;;;;;51.25;41.75;;;;;23.60;61.96;101063.50;5079280;28;45429;-53
2021/09/05 03:24:05;;;;;;;;;53.50;43.75;;;;;23.60;61.87;101062.66;5079306;27;45441;-53
2021/09/05 03:26:32;;;;;;;;;49.00;40.75;;;;;23.61;61.95;101069.81;5079672;28;45275;-52
2021/09/05 03:28:58;;;;;;;;;43.25;37.75;;;;;23.60;61.70;101065.34;5077246;28;47278;-52
2021/09/05 03:31:23;;;;;;;;;51.25;42.25;;;;;23.58;62.04;101065.47;5086375;27;45794;-52
2021/09/05 03:33:49;;;;;;;;;49.25;41.00;;;;;23.59;62.14;101079.88;5080148;27;45543;-53
2021/09/05 03:36:14;;;;;;;;;47.50;39.75;;;;;23.59;61.92;101063.63;5060720;28;45935;-53
2021/09/05 03:38:39;;;;;;;;;47.00;40.25;;;;;23.58;61.85;101057.34;5078545;28;48224;-53
2021/09/05 03:41:05;;;;;;;;;35.50;30.50;;;;;23.60;61.84;101059.94;5079166;28;45291;-54
2021/09/05 03:43:30;;;;;;;;;36.75;31.75;;;;;23.60;61.90;101058.09;5079220;28;45405;-54
2021/09/05 03:45:56;;;;;;;;;43.25;37.25;;;;;23.59;61.61;101058.22;5054752;28;45327;-50
2021/09/05 03:48:21;;;;;;;;;38.25;34.50;;;;;23.60;62.09;101059.94;5057250;28;46022;-53
2021/09/05 03:50:47;;;;;;;;;40.00;33.25;;;;;23.60;61.80;101057.22;5045138;28;45410;-53
2021/09/05 03:53:12;;;;;;;;;42.25;35.25;;;;;23.58;61.96;101062.75;5046491;28;45268;-54
2021/09/05 03:55:38;;;;;;;;;40.75;34.50;;;;;23.56;61.69;101053.84;5042744;28;45466;-54
2021/09/05 03:58:05;;;;;;;;;38.50;33.75;;;;;23.54;61.73;101058.50;5038590;28;47991;-52
2021/09/05 04:00:31;;;;;;;;;43.00;35.00;;;;;23.54;61.92;101057.66;5038457;28;45383;-53
2021/09/05 04:02:56;;;;;;;;;36.00;33.25;;;;;23.54;62.11;101053.09;5038111;28;45393;-53
2021/09/05 04:05:22;;;;;;;;;40.00;33.75;;;;;23.54;62.03;101053.09;5038353;28;45278;-54
2021/09/05 04:08:13;;;;;;;;;36.75;33.25;;;;;23.53;61.94;101058.63;5035538;28;47282;-52
2021/09/05 04:10:37;;;;;;;;;28.25;26.50;;;;;23.55;61.92;101060.25;5057894;28;45328;-54
2021/09/05 04:13:04;;;;;;;;;33.25;30.00;;;;;23.57;61.94;101061.00;5040438;28;45382;-54
2021/09/05 04:15:30;;;;;;;;;32.00;31.25;;;;;23.59;61.88;101064.50;5050692;28;45341;-53
2021/09/05 04:17:57;;;;;;;;;29.00;28.00;;;;;23.59;61.84;101060.91;5039048;28;47700;-54
2021/09/05 04:20:23;;;;;;;;;25.50;25.50;;;;;23.59;61.79;101063.63;5053351;28;45798;-53
2021/09/05 04:22:49;;;;;;;;;26.50;25.75;;;;;23.57;61.62;101069.13;5044371;28;45427;-54
2021/09/05 04:25:15;;;;;;;;;22.75;22.75;;;;;23.55;61.48;101071.09;5057949;28;45429;-53
2021/09/05 04:27:41;;;;;;;;;22.75;19.75;;;;;23.56;61.55;101077.38;5045034;28;45449;-54
2021/09/05 04:30:09;;;;;;;;;25.25;23.75;;;;;23.55;61.63;101072.94;5057471;28;45452;-53
2021/09/05 04:32:35;;;;;;;;;26.00;24.25;;;;;23.55;61.53;101078.34;5041473;28;45636;-55
2021/09/05 04:35:01;;;;;;;;;26.50;23.75;;;;;23.52;61.86;101076.72;5037364;28;45287;-52
2021/09/05 04:37:27;;;;;;;;;22.25;22.25;;;;;23.53;61.64;101078.44;5037612;28;48357;-53
2021/09/05 04:39:53;;;;;;;;;23.25;22.75;;;;;23.55;61.60;101086.47;5037470;28;45376;-53
2021/09/05 04:42:19;;;;;;;;;26.25;25.50;;;;;23.56;61.53;101078.22;5037997;28;45329;-53
2021/09/05 04:44:45;;;;;;;;;26.00;25.25;;;;;23.58;61.42;101079.03;5036791;28;45602;-53
2021/09/05 04:47:11;;;;;;;;;20.50;20.50;;;;;23.60;61.72;101096.03;5068208;27;47384;-54
2021/09/05 04:49:36;;;;;;;;;22.50;22.50;;;;;23.62;61.45;101088.66;5078212;28;45477;-55
2021/09/05 04:52:03;;;;;;;;;21.25;21.25;;;;;23.64;61.51;101091.28;5078161;28;45404;-54
2021/09/05 04:54:29;;;;;;;;;21.25;19.00;;;;;23.67;61.34;101099.19;5077936;27;45483;-51
2021/09/05 04:56:55;;;;;;;;;18.25;18.00;;;;;23.69;61.36;101103.53;5082156;27;47911;-54
2021/09/05 04:59:20;;;;;;;;;19.50;19.25;;;;;23.70;61.12;101099.84;5077722;27;45306;-51
2021/09/05 05:01:46;;;;;;;;;18.25;18.25;;;;;23.72;61.34;101097.88;5074550;28;47700;-53
2021/09/05 05:04:11;;;;;;;;;21.75;20.75;;;;;23.74;61.19;101098.63;5087063;27;45426;-52
2021/09/05 05:06:41;;;;;;;;;20.75;18.75;;;;;23.76;61.16;101106.69;5077277;27;45367;-54
2021/09/05 05:09:11;;;;;;;;;20.75;20.25;;;;;23.77;60.95;101112.00;5084325;27;45654;-56
2021/09/05 05:11:40;;;;;;;;;23.00;21.75;;;;;23.77;60.87;101111.13;5077064;28;45397;-52
2021/09/05 05:14:06;;;;;;;;;23.00;23.00;;;;;23.75;61.16;101116.63;5071496;28;45420;-53
2021/09/05 05:16:32;;;;;;;;;20.00;20.00;;;;;23.71;61.21;101116.97;5076690;28;46559;-54
2021/09/05 05:18:57;;;;;;;;;26.00;22.75;;;;;23.70;60.86;101120.66;5058738;28;45362;-54
2021/09/05 05:21:26;;;;;;;;;21.25;19.25;;;;;23.68;61.03;101117.19;5077628;28;45239;-53
2021/09/05 05:23:53;;;;;;;;;22.00;21.75;;;;;23.66;60.95;101124.56;5077710;28;45439;-55
2021/09/05 05:26:18;;;;;;;;;21.25;21.25;;;;;23.65;61.08;101125.53;5077633;28;48512;-55
2021/09/05 05:28:44;;;;;;;;;20.50;18.75;;;;;23.67;60.86;101134.41;5080702;27;45371;-54
2021/09/05 05:31:09;;;;;;;;;23.00;20.25;;;;;23.67;61.21;101140.69;5063005;28;45533;-55
2021/09/05 05:33:35;;;;;;;;;23.50;22.75;;;;;23.66;61.05;101133.56;5061867;28;45366;-54
2021/09/05 05:36:00;;;;;;;;;23.00;21.00;;;;;23.63;61.05;101138.28;5063248;28;47266;-54
2021/09/05 05:38:26;;;;;;;;;19.25;18.50;;;;;23.59;61.19;101132.22;5081253;28;45725;-54
2021/09/05 05:40:51;;;;;;;;;19.25;19.25;;;;;23.57;61.29;101136.84;5063288;28;45792;-55
2021/09/05 05:43:17;;;;;;;;;24.25;22.75;;;;;23.57;61.03;101149.53;5081350;28;45363;-54
2021/09/05 05:45:44;;;;;;;;;24.50;24.50;;;;;23.56;61.22;101139.69;5080617;28;45597;-55
2021/09/05 05:48:11;;;;;;;;;20.00;18.50;;;;;23.55;60.88;101141.53;5081012;27;45737;-53
2021/09/05 05:50:36;;;;;;;;;22.25;22.25;;;;;23.55;61.44;101138.81;5080945;28;45597;-55
2021/09/05 05:53:02;;;;;;;;;20.50;20.50;;;;;23.55;61.15;101137.94;5080694;28;45449;-55
2021/09/05 05:55:28;;;;;;;;;21.50;20.00;;;;;23.56;60.73;101145.09;5062977;28;48080;-54
2021/09/05 05:57:53;;;;;;;;;22.50;21.00;;;;;23.56;60.77;101145.97;5080797;28;45784;-54
2021/09/05 06:00:20;;;;;;;;;21.25;19.50;;;;;23.57;60.82;101144.97;5080343;27;45565;-54
2021/09/05 06:02:46;;;;;;;;;19.75;19.75;;;;;23.57;60.96;101150.41;5080582;27;45530;-52
2021/09/05 06:05:13;;;;;;;;;21.50;21.50;;;;;23.57;61.00;101146.81;5080500;27;48153;-54
2021/09/05 06:07:39;;;;;;;;;19.50;18.50;;;;;23.57;61.00;101155.81;5062289;28;45373;-55
2021/09/05 06:10:04;;;;;;;;;23.00;20.75;;;;;23.58;60.96;101154.00;5081339;28;45512;-52
2021/09/05 06:12:30;;;;;;;;;22.00;20.75;;;;;23.60;60.92;101155.63;5062542;28;45377;-53
2021/09/05 06:14:56;;;;;;;;;19.00;19.00;;;;;23.61;60.94;101159.22;5080540;28;45259;-53
2021/09/05 06:17:22;;;;;;;;;21.00;20.75;;;;;23.62;60.95;101159.09;5061473;28;45697;-53
2021/09/05 06:19:47;;;;;;;;;22.25;20.25;;;;;23.64;60.70;101167.16;5080136;27;45530;-52
2021/09/05 06:22:12;;;;;;;;;21.25;20.50;;;;;23.65;60.66;101160.75;5080181;28;45480;-52
2021/09/05 06:24:38;;;;;;;;;18.00;18.00;;;;;23.67;60.44;101166.94;5080183;28;48171;-54
2021/09/05 06:27:04;;;;;;;;;19.50;19.50;;;;;23.68;60.70;101164.13;5080181;28;45465;-54
2021/09/05 06:29:29;;;;;;;;;19.75;19.00;;;;;23.71;60.57;101160.31;5080436;28;45488;-54
2021/09/05 06:31:55;;;;;;;;;21.25;21.00;;;;;23.75;60.59;101173.53;5082047;27;45386;-54
2021/09/05 06:34:20;;;;;;;;;21.00;21.00;;;;;23.79;60.46;101176.91;5079896;28;48323;-54
2021/09/05 06:36:46;;;;;;;;;19.50;18.00;;;;;23.81;59.95;101187.66;5079791;28;45734;-54
2021/09/05 06:39:13;;;;;;;;;21.00;19.50;;;;;23.80;60.28;101189.50;5078661;27;45430;-54
2021/09/05 06:41:39;;;;;;;;;23.75;20.00;;;;;23.78;60.16;101183.31;5080509;27;45325;-53
2021/09/05 06:44:04;;;;;;;;;19.75;19.75;;;;;23.77;60.35;101190.59;5079826;28;48122;-54
2021/09/05 06:46:30;;;;;;;;;21.00;20.25;;;;;23.80;59.98;101194.91;5073617;27;45524;-55
2021/09/05 06:48:55;;;;;;;;;22.50;20.75;;;;;23.84;60.49;101190.13;5073423;27;45560;-54
2021/09/05 06:51:21;;;;;;;;;24.00;22.00;;;;;23.87;60.31;101203.47;5079532;27;45616;-55
2021/09/05 06:53:46;;;;;;;;;19.25;19.25;;;;;23.90;60.26;101212.28;5061586;28;48270;-55
2021/09/05 06:56:12;;;;;;;;;21.75;21.75;;;;;23.94;60.32;101207.50;5080955;27;45790;-52
2021/09/05 06:58:38;;;;;;;;;20.25;19.00;;;;;24.00;60.14;101217.91;5079784;27;45453;-55
2021/09/05 07:01:04;;;;;;;;;20.00;20.00;;;;;24.04;59.84;101216.75;5079718;27;45367;-55
2021/09/05 07:03:29;;;;;;;;;21.50;19.50;;;;;24.08;59.89;101219.13;5079968;27;48588;-55
2021/09/05 07:05:55;;;;;;;;;21.50;20.75;;;;;24.14;59.71;101212.41;5076479;27;45816;-55
2021/09/05 07:08:21;;;;;;;;;20.75;20.75;;;;;24.17;59.75;101220.31;5062974;28;45711;-54
2021/09/05 07:10:47;;;;;;;;;20.00;18.25;;;;;24.20;59.61;101220.09;5080717;27;45620;-55
2021/09/05 07:13:13;;;;;;;;;20.00;20.00;;;;;24.24;59.44;101221.59;5060941;28;46280;-55
2021/09/05 07:15:38;;;;;;;;;21.25;21.00;;;;;24.30;59.35;101225.78;5079365;27;46013;-52
2021/09/05 07:18:04;;;;;;;;;20.25;20.25;;;;;24.34;59.16;101232.72;5079605;27;45388;-54
2021/09/05 07:20:31;;;;;;;;;25.00;21.75;;;;;24.41;59.11;101230.44;5079602;27;45393;-55
2021/09/05 07:22:57;;;;;;;;;17.75;17.25;;;;;24.43;58.86;101229.34;5078549;27;47499;-57
2021/09/05 07:25:25;;;;;;;;;22.00;21.50;;;;;24.46;58.63;101234.56;5057650;28;45396;-53
2021/09/05 07:27:51;;;;;;;;;22.25;21.00;;;;;24.49;58.61;101228.03;5079029;27;45743;-56
2021/09/05 07:30:16;;;;;;;;;28.00;26.00;;;;;24.51;58.95;101223.34;5079376;27;45778;-55
2021/09/05 07:32:42;;;;;;;;;23.50;23.50;;;;;24.52;58.86;101226.00;5073594;27;46177;-55
2021/09/05 07:35:08;;;;;;;;;21.00;20.50;;;;;24.55;58.63;101230.31;5079439;27;45448;-55
2021/09/05 07:37:35;;;;;;;;;25.50;25.50;;;;;24.54;58.41;101239.44;5078870;27;45312;-54
2021/09/05 07:40:02;;;;;;;;;22.75;22.75;;;;;24.53;58.43;101235.00;5079098;27;45651;-55
2021/09/05 07:42:27;;;;;;;;;23.00;22.00;;;;;24.55;58.50;101233.03;5076143;27;45485;-53
2021/09/05 07:44:53;;;;;;;;;21.00;19.50;;;;;24.54;58.43;101232.16;5080401;27;45675;-59
2021/09/05 07:47:19;;;;;;;;;22.75;21.50;;;;;24.53;58.23;101241.28;5068901;27;45287;-53
2021/09/05 07:49:45;;;;;;;;;22.75;22.75;;;;;24.53;58.59;101240.41;5053612;28;45470;-54
2021/09/05 07:52:11;;;;;;;;;20.25;18.50;;;;;24.52;58.64;101242.28;5078300;28;47518;-54
2021/09/05 07:54:37;;;;;;;;;23.00;21.75;;;;;24.49;58.24;101242.47;5078466;28;45362;-54
2021/09/05 07:57:03;;;;;;;;;21.50;21.50;;;;;24.47;58.61;101248.97;5062898;28;45622;-55
2021/09/05 07:59:28;;;;;;;;;22.25;22.25;;;;;24.45;58.52;101253.66;5079190;28;45630;-54
2021/09/05 08:01:54;;;;;;;;;22.00;22.00;;;;;24.44;58.30;101251.91;5075721;27;47416;-56
2021/09/05 08:04:19;;;;;;;;;18.50;18.00;;;;;24.45;58.64;101256.38;5051375;28;45385;-56
2021/09/05 08:06:45;;;;;;;;;21.75;19.50;;;;;24.44;58.35;101258.22;5073638;28;45353;-56
2021/09/05 08:09:10;;;;;;;;;25.00;25.00;;;;;24.43;58.35;101261.03;5062360;27;45359;-56
2021/09/05 08:11:36;;;;;;;;;23.00;23.00;;;;;24.42;58.35;101265.59;5078670;27;47281;-56
2021/09/05 08:14:01;;;;;;;;;22.00;20.75;;;;;24.42;58.46;101264.72;5074411;27;45415;-55
2021/09/05 08:16:27;;;;;;;;;22.50;22.50;;;;;24.42;58.30;101267.44;5060500;28;45441;-54
2021/09/05 08:18:53;;;;;;;;;22.25;21.50;;;;;24.44;58.20;101269.06;5060805;28;45429;-54
2021/09/05 08:21:18;;;;;;;;;24.25;23.50;;;;;24.47;58.34;101278.81;5078250;27;47167;-55
2021/09/05 08:23:44;;;;;;;;;24.25;22.25;;;;;24.49;58.46;101266.88;5060224;28;45954;-55
2021/09/05 08:26:11;;;;;;;;;26.50;25.50;;;;;24.53;58.44;101278.41;5079114;27;45519;-55
2021/09/05 08:28:38;;;;;;;;;29.00;28.75;;;;;24.56;58.28;101270.91;5078382;28;45774;-54
2021/09/05 08:31:04;;;;;;;;;25.25;23.75;;;;;24.62;58.25;101283.16;5077661;27;45488;-57
2021/09/05 08:33:30;;;;;;;;;24.25;24.25;;;;;24.64;58.13;101282.06;5078055;27;45331;-56
2021/09/05 08:35:55;;;;;;;;;24.50;24.50;;;;;24.68;58.03;101280.03;5077840;27;45444;-54
2021/09/05 08:38:21;;;;;;;;;20.00;19.25;;;;;24.73;58.02;101279.69;5077210;27;45437;-54
2021/09/05 08:40:48;;;;;;;;;30.75;28.50;;;;;24.77;57.67;101279.34;5077369;27;47365;-55
2021/09/05 08:43:16;;;;;;;;;26.00;25.75;;;;;24.79;57.59;101282.84;5078933;27;45893;-55
2021/09/05 08:45:45;;;;;;;;;22.00;21.50;;;;;24.82;57.32;101279.03;5059319;28;46050;-54
2021/09/05 08:48:14;;;;;;;;;24.75;24.75;;;;;24.84;57.50;101294.22;5060070;28;45674;-54
2021/09/05 08:50:40;;;;;;;;;29.50;29.50;;;;;24.84;57.34;101294.22;5077661;28;47097;-55
2021/09/05 08:53:06;;;;;;;;;22.25;22.25;;;;;24.85;57.84;101284.22;5059508;28;45480;-54
2021/09/05 08:55:32;;;;;;;;;26.00;24.50;;;;;24.88;57.38;101284.84;5078039;27;45470;-56
2021/09/05 08:57:58;;;;;;;;;24.00;23.00;;;;;24.90;57.59;101276.59;5075017;27;45688;-54
2021/09/05 09:00:23;;;;;;;;;27.50;24.25;;;;;24.92;57.43;101283.69;5078664;27;48184;-54
2021/09/05 09:02:52;;;;;;;;;19.75;19.75;;;;;24.93;57.04;101287.25;5073106;27;45570;-55
2021/09/05 09:05:35;;;;;;;;;24.00;23.75;;;;;24.93;57.20;101290.84;5078220;28;45307;-54
2021/09/05 09:08:04;;;;;;;;;22.50;21.50;;;;;24.93;57.55;101285.41;5076282;27;45635;-54
2021/09/05 09:10:30;;;;;;;;;24.00;24.00;;;;;24.96;57.19;101289.75;5070931;27;47227;-57
2021/09/05 09:12:56;;;;;;;;;24.25;23.75;;;;;24.97;57.67;101290.63;5081559;27;45345;-55
2021/09/05 09:15:32;;;;;;;;;24.50;22.25;;;;;24.99;57.36;101294.94;5084265;27;45670;-55
2021/09/05 09:18:04;;;;;;;;;22.00;22.00;;;;;25.01;57.62;101289.44;5049553;28;45437;-56
2021/09/05 09:20:36;;;;;;;;;20.75;20.00;;;;;25.03;57.02;101287.47;5077131;27;48461;-55
2021/09/05 09:23:11;;;;;;;;;24.50;23.25;;;;;25.05;57.45;101290.97;5076751;28;45449;-55
2021/09/05 09:25:37;;;;;;;;;25.50;24.00;;;;;25.07;57.12;101295.28;5058938;27;45355;-54
2021/09/05 09:28:22;;;;;;;;;22.75;22.75;;;;;25.12;57.13;101293.09;5077861;28;45415;-56
2021/09/05 09:30:48;;;;;;;;;23.00;23.00;;;;;25.15;57.16;101292.88;5077045;28;48669;-55
2021/09/05 09:33:24;;;;;;;;;25.25;25.25;;;;;25.18;56.86;101295.38;5077245;27;45215;-56
2021/09/05 09:36:01;;;;;;;;;21.00;21.00;;;;;25.21;57.04;101297.00;5081767;27;45443;-53
2021/09/05 09:38:27;;;;;;;;;20.75;20.50;;;;;25.22;57.21;101301.44;5077307;27;45444;-55
2021/09/05 09:41:16;;;;;;;;;21.75;21.75;;;;;25.27;56.79;101292.94;5077032;28;47444;-55
2021/09/05 09:43:55;;;;;;;;;25.00;24.25;;;;;25.30;56.87;101296.31;5076983;28;45490;-55
2021/09/05 09:46:23;;;;;;;;;22.00;21.25;;;;;25.35;56.60;101290.53;5046407;28;45516;-53
2021/09/05 09:48:52;;;;;;;;;21.25;21.00;;;;;25.37;56.22;101294.88;5035635;28;45375;-57
2021/09/05 09:51:18;;;;;;;;;20.25;20.25;;;;;25.38;56.32;101295.72;5033600;28;47386;-56
2021/09/05 09:53:45;;;;;;;;;23.25;23.00;;;;;25.41;56.60;101290.06;5035680;28;45264;-56
2021/09/05 09:56:20;;;;;;;;;22.75;21.50;;;;;25.46;56.64;101301.47;5048624;28;45912;-56
2021/09/05 09:58:51;;;;;;;;;18.75;18.00;;;;;25.48;56.69;101300.38;5035857;28;45435;-54
2021/09/05 10:01:22;;;;;;;;;25.25;23.00;;;;;25.51;56.46;101302.00;5036245;28;46221;-55
2021/09/05 10:03:50;;;;;;;;;19.50;17.00;;;;;25.53;55.94;101287.28;5037325;28;45534;-53
2021/09/05 10:06:16;;;;;;;;;21.75;21.50;;;;;25.57;55.98;101295.25;5036428;28;45338;-56
2021/09/05 10:08:44;;;;;;;;;21.00;21.00;;;;;25.59;55.84;101283.25;5043175;28;45560;-56
2021/09/05 10:11:12;;;;;;;;;23.00;22.00;;;;;25.63;56.07;101283.88;5032188;28;47964;-56
2021/09/05 10:13:39;;;;;;;;;21.00;21.00;;;;;25.65;56.00;101285.50;5038695;28;46372;-56
2021/09/05 10:16:05;;;;;;;;;21.00;20.75;;;;;25.68;55.75;101287.16;5039993;28;45307;-55
2021/09/05 10:18:34;;;;;;;;;22.50;20.00;;;;;25.70;55.70;101286.06;5039752;28;45615;-56
2021/09/05 10:21:00;;;;;;;;;18.50;18.00;;;;;25.71;55.67;101285.09;5039763;28;46384;-56
2021/09/05 10:23:31;;;;;;;;;21.00;19.75;;;;;25.73;55.80;101285.81;5039805;28;45381;-57
2021/09/05 10:26:05;;;;;;;;;22.50;21.25;;;;;25.75;55.42;101288.44;5039664;28;45551;-55
2021/09/05 10:28:36;;;;;;;;;20.00;19.00;;;;;25.77;55.72;101286.44;5040185;28;45397;-56
2021/09/05 10:31:02;;;;;;;;;20.25;19.75;;;;;25.80;55.75;101283.53;5040226;28;47334;-56
2021/09/05 10:33:46;;;;;;;;;23.25;22.75;;;;;25.84;55.15;101286.88;5039890;28;45355;-56
2021/09/05 10:36:13;;;;;;;;;19.25;19.25;;;;;25.85;55.42;101284.03;5038938;28;45501;-56
2021/09/05 10:38:41;;;;;;;;;18.00;18.00;;;;;25.89;55.61;101288.22;5035722;28;45373;-55
2021/09/05 10:41:27;;;;;;;;;21.50;18.75;;;;;25.91;55.71;101286.25;5039552;28;46919;-58
2021/09/05 10:44:08;;;;;;;;;18.50;18.50;;;;;25.95;55.53;101281.47;5043288;28;46192;-55
2021/09/05 10:46:41;;;;;;;;;18.00;16.25;;;;;25.96;54.41;101275.91;5038029;28;45466;-58
2021/09/05 10:49:07;;;;;;;;;21.75;19.25;;;;;25.99;54.80;101285.69;5039758;28;45695;-57
2021/09/05 10:51:51;;;;;;;;;18.75;17.50;;;;;26.02;55.03;101282.72;5040356;28;46659;-58
2021/09/05 10:54:24;;;;;;;;;19.50;19.50;;;;;26.05;55.27;101272.50;5040461;28;45326;-55
2021/09/05 10:56:51;;;;;;;;;18.25;18.25;;;;;26.08;55.08;101284.97;5042351;28;45658;-55
2021/09/05 10:59:24;;;;;;;;;15.25;15.25;;;;;26.10;54.26;101278.41;5039468;28;45409;-57
2021/09/05 11:01:50;;;;;;;;;19.25;18.50;;;;;26.13;54.35;101276.44;5038595;28;47252;-56
2021/09/05 11:04:16;;;;;;;;;18.50;18.50;;;;;26.16;54.84;101273.47;5039442;28;45738;-54
2021/09/05 11:06:45;;;;;;;;;18.50;18.50;;;;;26.20;54.33;101269.56;5037416;28;45433;-56
2021/09/05 11:09:20;;;;;;;;;21.25;20.75;;;;;26.23;54.27;101270.16;5042090;28;45353;-56